EZY82CQ EGNS-EGCC
Flight info
| Callsign | EZY82CQ |
|---|---|
| Flight time | 0h 31m |
| Altitude | 15000 |
| Route | TIMIS Q39 DANDI DCT PENIL |
| Aircraft | A320/M-SDE2E3FGHIRWXY/LB1 |
Departure
| Time | 2026-04-18 11:02 |
|---|---|
| Airport | Isle of Man Airport (EGNS) |
Arrival
| Time | 2026-04-18 11:34 |
|---|---|
| Airport | Manchester Airport (EGCC) |
| Time | Latitude | Longitude | Altitude | Speed | Heading |
|---|---|---|---|---|---|
| 2026-04-18 10:36 | 54.08567 | -4.63269 | 37 ft | 0 kts | 43° |
| 2026-04-18 10:53 | 54.08560 | -4.63281 | 40 ft | 4 kts | 44° |
| 2026-04-18 10:53 | 54.08542 | -4.63314 | 38 ft | 4 kts | 67° |
| 2026-04-18 10:54 | 54.08536 | -4.63332 | 38 ft | 3 kts | 163° |
| 2026-04-18 10:54 | 54.08538 | -4.63334 | 36 ft | 0 kts | 168° |
| 2026-04-18 10:58 | 54.08498 | -4.63340 | 38 ft | 12 kts | 201° |
| 2026-04-18 10:58 | 54.08443 | -4.63320 | 38 ft | 8 kts | 128° |
| 2026-04-18 10:58 | 54.08416 | -4.63236 | 39 ft | 8 kts | 117° |
| 2026-04-18 10:59 | 54.08396 | -4.63145 | 39 ft | 11 kts | 99° |
| 2026-04-18 10:59 | 54.08414 | -4.62981 | 38 ft | 14 kts | 77° |
| 2026-04-18 10:59 | 54.08433 | -4.62821 | 38 ft | 13 kts | 79° |
| 2026-04-18 10:59 | 54.08451 | -4.62687 | 40 ft | 10 kts | 77° |
| 2026-04-18 11:00 | 54.08465 | -4.62574 | 39 ft | 11 kts | 77° |
| 2026-04-18 11:00 | 54.08485 | -4.62416 | 41 ft | 16 kts | 78° |
| 2026-04-18 11:00 | 54.08514 | -4.62178 | 37 ft | 25 kts | 77° |
| 2026-04-18 11:00 | 54.08553 | -4.61863 | 30 ft | 28 kts | 77° |
| 2026-04-18 11:01 | 54.08596 | -4.61533 | 26 ft | 29 kts | 78° |
| 2026-04-18 11:01 | 54.08639 | -4.61194 | 22 ft | 30 kts | 78° |
| 2026-04-18 11:01 | 54.08668 | -4.60905 | 19 ft | 18 kts | 96° |
| 2026-04-18 11:02 | 54.08516 | -4.60893 | 17 ft | 16 kts | 258° |
| 2026-04-18 11:02 | 54.08466 | -4.61308 | 23 ft | 75 kts | 258° |
| 2026-04-18 11:02 | 54.08298 | -4.62641 | 56 ft | 149 kts | 260° |
| 2026-04-18 11:02 | 54.08059 | -4.64365 | 930 ft | 150 kts | 259° |
| 2026-04-18 11:03 | 54.07830 | -4.66164 | 1780 ft | 162 kts | 260° |
| 2026-04-18 11:03 | 54.07288 | -4.68005 | 2205 ft | 193 kts | 230° |
| 2026-04-18 11:03 | 54.05970 | -4.69007 | 2627 ft | 230 kts | 187° |
| 2026-04-18 11:03 | 54.04307 | -4.68413 | 3157 ft | 259 kts | 160° |
| 2026-04-18 11:04 | 54.02661 | -4.67027 | 3875 ft | 273 kts | 152° |
| 2026-04-18 11:04 | 54.00976 | -4.65382 | 4831 ft | 278 kts | 151° |
| 2026-04-18 11:04 | 53.99307 | -4.63732 | 5730 ft | 285 kts | 152° |
| 2026-04-18 11:04 | 53.97566 | -4.62108 | 6693 ft | 287 kts | 154° |
| 2026-04-18 11:05 | 53.95821 | -4.60466 | 7669 ft | 288 kts | 147° |
| 2026-04-18 11:05 | 53.94312 | -4.58178 | 8575 ft | 295 kts | 131° |
| 2026-04-18 11:05 | 53.93076 | -4.55374 | 9477 ft | 300 kts | 127° |
| 2026-04-18 11:05 | 53.91888 | -4.52457 | 10388 ft | 303 kts | 126° |
| 2026-04-18 11:06 | 53.90670 | -4.49381 | 10718 ft | 326 kts | 125° |
| 2026-04-18 11:06 | 53.89369 | -4.46091 | 11193 ft | 341 kts | 125° |
| 2026-04-18 11:06 | 53.88036 | -4.42739 | 12003 ft | 345 kts | 126° |
| 2026-04-18 11:06 | 53.86675 | -4.39348 | 12806 ft | 349 kts | 126° |
| 2026-04-18 11:07 | 53.85298 | -4.35945 | 13652 ft | 352 kts | 126° |
| 2026-04-18 11:07 | 53.83899 | -4.32507 | 14363 ft | 356 kts | 127° |
| 2026-04-18 11:07 | 53.82962 | -4.30212 | 14823 ft | 359 kts | 127° |
| 2026-04-18 11:07 | 53.81530 | -4.26712 | 15134 ft | 363 kts | 127° |
| 2026-04-18 11:08 | 53.80102 | -4.23226 | 15215 ft | 354 kts | 127° |
| 2026-04-18 11:08 | 53.78721 | -4.19848 | 15223 ft | 346 kts | 127° |
| 2026-04-18 11:08 | 53.77354 | -4.16514 | 15224 ft | 344 kts | 127° |
| 2026-04-18 11:08 | 53.75988 | -4.13199 | 15234 ft | 343 kts | 127° |
| 2026-04-18 11:09 | 53.74623 | -4.09893 | 15229 ft | 343 kts | 127° |
| 2026-04-18 11:09 | 53.73256 | -4.06588 | 15231 ft | 343 kts | 127° |
| 2026-04-18 11:09 | 53.71886 | -4.03286 | 15231 ft | 343 kts | 127° |
| 2026-04-18 11:09 | 53.70516 | -3.99982 | 15231 ft | 344 kts | 127° |
| 2026-04-18 11:10 | 53.69148 | -3.96676 | 15231 ft | 344 kts | 126° |
| 2026-04-18 11:10 | 53.67996 | -3.93137 | 15230 ft | 345 kts | 114° |
| 2026-04-18 11:10 | 53.67105 | -3.89375 | 15216 ft | 346 kts | 113° |
| 2026-04-18 11:10 | 53.66216 | -3.85611 | 15219 ft | 346 kts | 113° |
| 2026-04-18 11:11 | 53.65322 | -3.81852 | 15220 ft | 346 kts | 113° |
| 2026-04-18 11:11 | 53.64421 | -3.78091 | 15223 ft | 346 kts | 113° |
| 2026-04-18 11:11 | 53.63519 | -3.74339 | 15226 ft | 346 kts | 113° |
| 2026-04-18 11:11 | 53.62615 | -3.70586 | 15226 ft | 346 kts | 113° |
| 2026-04-18 11:12 | 53.61667 | -3.66870 | 15227 ft | 345 kts | 119° |
| 2026-04-18 11:12 | 53.60394 | -3.63466 | 15230 ft | 343 kts | 127° |
| 2026-04-18 11:12 | 53.59013 | -3.60187 | 15232 ft | 343 kts | 128° |
| 2026-04-18 11:12 | 53.57631 | -3.56907 | 15235 ft | 344 kts | 128° |
| 2026-04-18 11:13 | 53.56264 | -3.53659 | 15224 ft | 334 kts | 128° |
| 2026-04-18 11:13 | 53.54935 | -3.50503 | 15077 ft | 327 kts | 128° |
| 2026-04-18 11:13 | 53.53627 | -3.47402 | 14932 ft | 325 kts | 128° |
| 2026-04-18 11:13 | 53.52319 | -3.44311 | 14817 ft | 324 kts | 128° |
| 2026-04-18 11:14 | 53.51012 | -3.41228 | 14685 ft | 323 kts | 128° |
| 2026-04-18 11:14 | 53.49707 | -3.38150 | 14567 ft | 324 kts | 128° |
| 2026-04-18 11:14 | 53.48404 | -3.35074 | 14443 ft | 323 kts | 128° |
| 2026-04-18 11:14 | 53.47105 | -3.32008 | 14317 ft | 322 kts | 128° |
| 2026-04-18 11:15 | 53.45809 | -3.28955 | 14187 ft | 321 kts | 128° |
| 2026-04-18 11:15 | 53.44514 | -3.25916 | 14067 ft | 320 kts | 128° |
| 2026-04-18 11:15 | 53.43218 | -3.22883 | 13931 ft | 319 kts | 128° |
| 2026-04-18 11:15 | 53.41928 | -3.19854 | 13790 ft | 319 kts | 126° |
| 2026-04-18 11:16 | 53.40919 | -3.16540 | 13658 ft | 320 kts | 108° |
| 2026-04-18 11:16 | 53.40562 | -3.12920 | 13497 ft | 311 kts | 89° |
| 2026-04-18 11:16 | 53.40844 | -3.09445 | 13308 ft | 293 kts | 71° |
| 2026-04-18 11:16 | 53.41640 | -3.06376 | 12855 ft | 284 kts | 56° |
| 2026-04-18 11:17 | 53.42639 | -3.03527 | 12332 ft | 282 kts | 56° |
| 2026-04-18 11:17 | 53.43625 | -3.00698 | 11848 ft | 279 kts | 56° |
| 2026-04-18 11:17 | 53.44597 | -2.97900 | 11359 ft | 276 kts | 56° |
| 2026-04-18 11:17 | 53.45559 | -2.95131 | 10900 ft | 274 kts | 56° |
| 2026-04-18 11:18 | 53.46494 | -2.92426 | 10451 ft | 270 kts | 56° |
| 2026-04-18 11:18 | 53.47430 | -2.89710 | 9926 ft | 267 kts | 55° |
| 2026-04-18 11:18 | 53.48356 | -2.87025 | 9384 ft | 264 kts | 56° |
| 2026-04-18 11:18 | 53.49271 | -2.84360 | 8832 ft | 262 kts | 56° |
| 2026-04-18 11:19 | 53.50176 | -2.81722 | 8284 ft | 260 kts | 56° |
| 2026-04-18 11:19 | 53.51075 | -2.79097 | 7737 ft | 258 kts | 56° |
| 2026-04-18 11:19 | 53.51964 | -2.76495 | 7199 ft | 256 kts | 58° |
| 2026-04-18 11:19 | 53.52751 | -2.73807 | 6661 ft | 256 kts | 60° |
| 2026-04-18 11:20 | 53.53496 | -2.71102 | 6102 ft | 254 kts | 62° |
| 2026-04-18 11:20 | 53.54241 | -2.68426 | 5532 ft | 252 kts | 61° |
| 2026-04-18 11:20 | 53.54990 | -2.65762 | 4959 ft | 252 kts | 61° |
| 2026-04-18 11:20 | 53.55735 | -2.63100 | 4390 ft | 251 kts | 61° |
| 2026-04-18 11:21 | 53.56462 | -2.60444 | 3886 ft | 249 kts | 66° |
| 2026-04-18 11:21 | 53.57019 | -2.57686 | 3704 ft | 251 kts | 70° |
| 2026-04-18 11:21 | 53.57478 | -2.54839 | 3705 ft | 254 kts | 74° |
| 2026-04-18 11:21 | 53.58045 | -2.52034 | 3712 ft | 252 kts | 66° |
| 2026-04-18 11:22 | 53.58704 | -2.49301 | 3715 ft | 252 kts | 65° |
| 2026-04-18 11:22 | 53.59372 | -2.46560 | 3707 ft | 253 kts | 65° |
| 2026-04-18 11:22 | 53.60041 | -2.43830 | 3707 ft | 252 kts | 65° |
| 2026-04-18 11:22 | 53.60707 | -2.41108 | 3715 ft | 251 kts | 65° |
| 2026-04-18 11:23 | 53.61354 | -2.38458 | 3678 ft | 239 kts | 65° |
| 2026-04-18 11:23 | 53.61967 | -2.35915 | 3561 ft | 230 kts | 65° |
| 2026-04-18 11:23 | 53.62556 | -2.33436 | 3436 ft | 227 kts | 66° |
| 2026-04-18 11:23 | 53.63057 | -2.30920 | 3434 ft | 227 kts | 72° |
| 2026-04-18 11:24 | 53.63448 | -2.28343 | 3589 ft | 228 kts | 74° |
| 2026-04-18 11:24 | 53.63816 | -2.25793 | 3622 ft | 226 kts | 75° |
| 2026-04-18 11:24 | 53.64106 | -2.23170 | 3586 ft | 228 kts | 82° |
| 2026-04-18 11:24 | 53.64206 | -2.20494 | 3548 ft | 228 kts | 91° |
| 2026-04-18 11:25 | 53.64042 | -2.17835 | 3548 ft | 229 kts | 102° |
| 2026-04-18 11:25 | 53.63581 | -2.15240 | 3542 ft | 228 kts | 114° |
| 2026-04-18 11:25 | 53.62830 | -2.12913 | 3530 ft | 226 kts | 128° |
| 2026-04-18 11:25 | 53.61802 | -2.10932 | 3527 ft | 223 kts | 141° |
| 2026-04-18 11:26 | 53.60666 | -2.09137 | 3425 ft | 224 kts | 140° |
| 2026-04-18 11:26 | 53.59531 | -2.07346 | 3289 ft | 223 kts | 143° |
| 2026-04-18 11:26 | 53.58327 | -2.05693 | 3184 ft | 223 kts | 149° |
| 2026-04-18 11:26 | 53.57041 | -2.04265 | 3128 ft | 220 kts | 156° |
| 2026-04-18 11:27 | 53.55686 | -2.03069 | 3072 ft | 220 kts | 160° |
| 2026-04-18 11:27 | 53.54293 | -2.01996 | 3030 ft | 219 kts | 164° |
| 2026-04-18 11:27 | 53.52887 | -2.01056 | 3191 ft | 217 kts | 167° |
| 2026-04-18 11:27 | 53.51462 | -2.00238 | 3422 ft | 216 kts | 169° |
| 2026-04-18 11:28 | 53.50019 | -1.99477 | 3512 ft | 218 kts | 170° |
| 2026-04-18 11:28 | 53.48555 | -1.98923 | 3554 ft | 212 kts | 183° |
| 2026-04-18 11:28 | 53.47156 | -1.99240 | 3618 ft | 199 kts | 211° |
| 2026-04-18 11:28 | 53.46102 | -2.00619 | 3625 ft | 191 kts | 239° |
| 2026-04-18 11:29 | 53.45421 | -2.02514 | 3470 ft | 187 kts | 244° |
| 2026-04-18 11:29 | 53.44792 | -2.04359 | 3415 ft | 179 kts | 245° |
| 2026-04-18 11:29 | 53.44254 | -2.06238 | 3256 ft | 178 kts | 250° |
| 2026-04-18 11:29 | 53.43797 | -2.08133 | 3107 ft | 170 kts | 250° |
| 2026-04-18 11:30 | 53.43274 | -2.09887 | 2825 ft | 172 kts | 244° |
| 2026-04-18 11:30 | 53.42690 | -2.11654 | 2369 ft | 171 kts | 245° |
| 2026-04-18 11:30 | 53.42129 | -2.13335 | 1998 ft | 155 kts | 242° |
| 2026-04-18 11:30 | 53.41541 | -2.14748 | 1779 ft | 144 kts | 236° |
| 2026-04-18 11:31 | 53.40928 | -2.15991 | 1727 ft | 135 kts | 235° |
| 2026-04-18 11:31 | 53.40316 | -2.17191 | 1625 ft | 135 kts | 235° |
| 2026-04-18 11:31 | 53.39727 | -2.18387 | 1500 ft | 131 kts | 237° |
| 2026-04-18 11:31 | 53.39173 | -2.19586 | 1341 ft | 129 kts | 239° |
| 2026-04-18 11:32 | 53.38633 | -2.20770 | 1072 ft | 128 kts | 238° |
| 2026-04-18 11:32 | 53.38065 | -2.21914 | 888 ft | 127 kts | 237° |
| 2026-04-18 11:32 | 53.37514 | -2.23102 | 750 ft | 131 kts | 236° |
| 2026-04-18 11:32 | 53.36938 | -2.24292 | 551 ft | 134 kts | 233° |
| 2026-04-18 11:33 | 53.36342 | -2.25504 | 371 ft | 134 kts | 233° |
| 2026-04-18 11:33 | 53.35768 | -2.26684 | 266 ft | 120 kts | 233° |
| 2026-04-18 11:33 | 53.35323 | -2.27607 | 256 ft | 87 kts | 231° |
| 2026-04-18 11:33 | 53.35027 | -2.28225 | 236 ft | 51 kts | 235° |
| 2026-04-18 11:34 | 53.34944 | -2.28636 | 233 ft | 19 kts | 262° |
| 2026-04-18 11:34 | 53.34995 | -2.28752 | 231 ft | 9 kts | 359° |
| 2026-04-18 11:34 | 53.35029 | -2.28715 | 232 ft | 0 kts | 49° |
| 2026-04-18 11:34 | 53.35028 | -2.28715 | 232 ft | 0 kts | 49° |
| 2026-04-18 11:36 | 53.35042 | -2.28689 | 232 ft | 11 kts | 51° |
| 2026-04-18 11:37 | 53.35092 | -2.28577 | 233 ft | 12 kts | 53° |
| 2026-04-18 11:37 | 53.35147 | -2.28465 | 231 ft | 13 kts | 51° |
| 2026-04-18 11:37 | 53.35198 | -2.28363 | 233 ft | 10 kts | 50° |
| 2026-04-18 11:37 | 53.35241 | -2.28284 | 234 ft | 13 kts | 43° |
| 2026-04-18 11:38 | 53.35347 | -2.28181 | 238 ft | 16 kts | 20° |
| 2026-04-18 11:38 | 53.35447 | -2.28151 | 238 ft | 14 kts | 12° |
| 2026-04-18 11:38 | 53.35539 | -2.28073 | 239 ft | 15 kts | 41° |
| 2026-04-18 11:38 | 53.35598 | -2.27953 | 244 ft | 10 kts | 51° |
| 2026-04-18 11:39 | 53.35678 | -2.27885 | 247 ft | 18 kts | 4° |
| 2026-04-18 11:39 | 53.35780 | -2.27866 | 247 ft | 0 kts | 4° |
| 2026-04-18 11:41 | 53.35805 | -2.27862 | 247 ft | 13 kts | 5° |
| 2026-04-18 11:41 | 53.35899 | -2.27846 | 247 ft | 13 kts | 6° |
| 2026-04-18 11:41 | 53.35980 | -2.27860 | 247 ft | 11 kts | 331° |
| 2026-04-18 11:41 | 53.36039 | -2.27956 | 247 ft | 13 kts | 315° |
| 2026-04-18 11:42 | 53.36107 | -2.28066 | 247 ft | 15 kts | 315° |
| 2026-04-18 11:42 | 53.36183 | -2.28155 | 247 ft | 13 kts | 1° |
| 2026-04-18 11:42 | 53.36255 | -2.28086 | 247 ft | 11 kts | 31° |
| 2026-04-18 11:42 | 53.36321 | -2.28041 | 247 ft | 9 kts | 26° |
| 2026-04-18 11:43 | 53.36363 | -2.27981 | 247 ft | 7 kts | 43° |
| 2026-04-18 11:43 | 53.36395 | -2.27935 | 247 ft | 5 kts | 35° |
| 2026-04-18 11:43 | 53.36426 | -2.27912 | 247 ft | 4 kts | 19° |
| 2026-04-18 11:43 | 53.36450 | -2.27899 | 247 ft | 3 kts | 19° |
| 2026-04-18 11:44 | 53.36468 | -2.27883 | 247 ft | 2 kts | 33° |
| 2026-04-18 11:44 | 53.36478 | -2.27868 | 247 ft | 2 kts | 42° |
| 2026-04-18 11:44 | 53.36483 | -2.27859 | 247 ft | 1 kts | 46° |